createdAt,value
2022-11-05T00:05:35.322Z,100292
2022-11-05T00:11:26.754Z,100293
2022-11-05T00:17:22.340Z,100296
2022-11-05T00:23:14.517Z,100295
2022-11-05T00:29:08.452Z,100306
2022-11-05T00:35:00.315Z,100312
2022-11-05T00:40:53.870Z,100327
2022-11-05T00:46:44.789Z,100340
2022-11-05T00:52:42.673Z,100349
2022-11-05T00:58:37.626Z,100356
2022-11-05T01:04:27.727Z,100371
2022-11-05T01:10:21.227Z,100374
2022-11-05T01:16:20.902Z,100379
2022-11-05T01:22:13.195Z,100371
2022-11-05T01:28:06.484Z,100375
2022-11-05T01:34:03.834Z,100381
2022-11-05T01:39:55.002Z,100391
2022-11-05T01:45:48.659Z,100390
2022-11-05T01:51:43.860Z,100402
2022-11-05T01:57:48.600Z,100415
2022-11-05T02:03:45.122Z,100423
2022-11-05T02:09:46.910Z,100428
2022-11-05T02:15:39.161Z,100433
2022-11-05T02:21:33.816Z,100434
2022-11-05T02:27:26.055Z,100430
2022-11-05T02:33:26.618Z,100443
2022-11-05T02:45:24.775Z,100445
2022-11-05T02:51:29.289Z,100446
2022-11-05T02:57:25.599Z,100450
2022-11-05T03:03:17.408Z,100452
2022-11-05T03:09:13.678Z,100448
2022-11-05T03:21:08.668Z,100449
2022-11-05T03:27:00.396Z,100447
2022-11-05T03:39:07.239Z,100448
2022-11-05T03:45:00.764Z,100453
2022-11-05T03:51:08.288Z,100466
2022-11-05T03:57:04.192Z,100473
2022-11-05T04:02:55.018Z,100472
2022-11-05T04:08:49.345Z,100482
2022-11-05T04:27:00.700Z,100493
2022-11-05T04:32:50.494Z,100496
2022-11-05T04:38:54.447Z,100498
2022-11-05T04:45:03.419Z,100510
2022-11-05T04:50:56.728Z,100519
2022-11-05T04:57:07.599Z,100513
2022-11-05T05:03:01.801Z,100511
2022-11-05T05:09:11.983Z,100512
2022-11-05T05:15:03.019Z,100515
2022-11-05T05:20:54.214Z,100525
2022-11-05T05:26:46.775Z,100531
2022-11-05T05:38:55.633Z,100532
2022-11-05T05:44:57.396Z,100533
2022-11-05T05:50:48.401Z,100544
2022-11-05T05:56:41.316Z,100545
2022-11-05T06:02:38.265Z,100554
2022-11-05T06:08:32.961Z,100560
2022-11-05T06:14:25.485Z,100561
2022-11-05T06:20:18.680Z,100569
2022-11-05T06:26:17.901Z,100569
2022-11-05T06:32:09.618Z,100584
2022-11-05T06:38:01.185Z,100583
2022-11-05T06:43:55.901Z,100595
2022-11-05T06:49:58.708Z,100607
2022-11-05T06:55:51.176Z,100618
2022-11-05T07:01:51.940Z,100620
2022-11-05T07:07:45.239Z,100632
2022-11-05T07:13:37.245Z,100642
2022-11-05T07:19:30.196Z,100648
2022-11-05T07:25:24.656Z,100652
2022-11-05T07:31:22.684Z,100649
2022-11-05T07:37:28.294Z,100660
2022-11-05T07:43:32.924Z,100662
2022-11-05T07:49:28.659Z,100670
2022-11-05T07:55:20.917Z,100678
2022-11-05T08:01:18.705Z,100685
2022-11-05T08:07:14.804Z,100694
2022-11-05T08:13:08.998Z,100707
2022-11-05T08:19:03.583Z,100703
2022-11-05T08:25:00.376Z,100708
2022-11-05T08:30:59.529Z,100705
2022-11-05T08:36:53.247Z,100710
2022-11-05T08:42:50.353Z,100712
2022-11-05T10:01:58.762Z,100732
2022-11-05T10:14:02.990Z,100743
2022-11-05T10:19:54.941Z,100745
2022-11-05T10:25:46.832Z,100752
2022-11-05T10:31:39.689Z,100748
2022-11-05T10:37:29.757Z,100752
2022-11-05T10:43:27.292Z,100754
2022-11-05T10:49:22.737Z,100757
2022-11-05T10:55:13.724Z,100757
2022-11-05T11:01:06.098Z,100754
2022-11-05T11:06:58.030Z,100754
2022-11-05T11:12:51.083Z,100760
2022-11-05T11:18:46.378Z,100757
2022-11-05T11:24:42.412Z,100750
2022-11-05T11:30:46.226Z,100747
2022-11-05T11:36:36.835Z,100743
2022-11-05T11:42:32.907Z,100741
2022-11-05T11:48:34.435Z,100742
2022-11-05T11:54:47.774Z,100745
2022-11-05T12:00:42.807Z,100736
2022-11-05T12:06:33.936Z,100735
2022-11-05T12:12:24.778Z,100735
2022-11-05T12:18:15.473Z,100737
2022-11-05T12:24:05.887Z,100732
2022-11-05T12:29:58.622Z,100738
2022-11-05T12:35:59.329Z,100732
2022-11-05T12:41:55.732Z,100736
2022-11-05T12:47:49.734Z,100730
2022-11-05T12:53:40.495Z,100735
2022-11-05T12:59:29.640Z,100727
2022-11-05T13:05:21.617Z,100720
2022-11-05T13:11:12.087Z,100727
2022-11-05T13:17:02.984Z,100720
2022-11-05T13:22:52.847Z,100729
2022-11-05T13:28:43.372Z,100715
2022-11-05T13:34:41.446Z,100710
2022-11-05T13:40:31.822Z,100710
2022-11-05T13:46:30.598Z,100700
2022-11-05T13:52:20.949Z,100695
2022-11-05T13:59:22.988Z,100700
2022-11-05T14:05:16.426Z,100707
2022-11-05T14:11:15.132Z,100693
2022-11-05T14:17:08.402Z,100680
2022-11-05T14:23:00.087Z,100683
2022-11-05T14:29:10.253Z,100679
2022-11-05T14:35:00.355Z,100672
2022-11-05T14:40:51.806Z,100660
2022-11-05T14:46:42.750Z,100650
2022-11-05T14:52:33.459Z,100651
2022-11-05T14:58:24.179Z,100660
2022-11-05T15:04:19.279Z,100663
2022-11-05T15:10:14.979Z,100667
2022-11-05T15:16:05.215Z,100665
2022-11-05T15:21:55.871Z,100665
2022-11-05T15:27:48.385Z,100670
2022-11-05T15:33:40.057Z,100680
2022-11-05T15:39:33.994Z,100677
2022-11-05T15:45:27.170Z,100688
2022-11-05T15:51:19.387Z,100692
2022-11-05T15:57:16.924Z,100693
2022-11-05T16:03:09.835Z,100702
2022-11-05T16:09:17.623Z,100701
2022-11-05T16:15:10.788Z,100699
2022-11-05T16:21:05.487Z,100695
2022-11-05T16:27:19.761Z,100702
2022-11-05T16:33:09.088Z,100706
2022-11-05T16:39:00.720Z,100705
2022-11-05T16:44:56.442Z,100699
2022-11-05T16:50:51.512Z,100708
2022-11-05T17:03:09.005Z,100718
2022-11-05T17:09:28.610Z,100724
2022-11-05T17:15:58.670Z,100721
2022-11-05T17:21:50.534Z,100723
2022-11-05T17:27:51.140Z,100724
2022-11-05T17:40:38.065Z,100729
2022-11-05T17:46:51.897Z,100723
2022-11-05T17:52:40.871Z,100720
2022-11-05T17:58:32.897Z,100723
2022-11-05T18:04:23.247Z,100711
2022-11-05T18:10:13.996Z,100705
2022-11-05T18:16:05.930Z,100712
2022-11-05T18:21:57.539Z,100717
2022-11-05T18:27:49.274Z,100721
2022-11-05T18:33:39.944Z,100713
2022-11-05T18:39:36.683Z,100718
2022-11-05T18:45:32.516Z,100714
2022-11-05T18:51:23.510Z,100712
2022-11-05T18:57:15.052Z,100724
2022-11-05T19:03:05.892Z,100714
2022-11-05T19:08:56.025Z,100711
2022-11-05T19:14:47.445Z,100707
2022-11-05T19:20:41.314Z,100710
2022-11-05T19:26:32.957Z,100708
2022-11-05T19:32:28.163Z,100701
2022-11-05T19:38:19.215Z,100693
2022-11-05T19:44:10.631Z,100687
2022-11-05T19:50:01.544Z,100696
2022-11-05T19:55:52.530Z,100694
2022-11-05T20:01:45.689Z,100694
2022-11-05T20:07:37.283Z,100707
2022-11-05T20:13:28.955Z,100707
2022-11-05T20:19:19.253Z,100714
2022-11-05T20:25:09.398Z,100712
2022-11-05T20:30:59.854Z,100725
2022-11-05T20:36:50.572Z,100726
2022-11-05T20:42:41.659Z,100717
2022-11-05T20:48:33.336Z,100723
2022-11-05T20:54:24.611Z,100725
2022-11-05T21:00:15.055Z,100743
2022-11-05T21:06:05.843Z,100737
2022-11-05T21:11:57.328Z,100746
2022-11-05T21:17:49.063Z,100749
2022-11-05T21:23:40.028Z,100736
2022-11-05T21:29:31.958Z,100733
2022-11-05T21:35:22.925Z,100743
2022-11-05T21:41:13.531Z,100742
2022-11-05T21:47:04.503Z,100735
2022-11-05T21:52:56.336Z,100735
2022-11-05T21:58:46.827Z,100729
2022-11-05T22:04:35.931Z,100726
2022-11-05T22:10:26.151Z,100730
2022-11-05T22:16:16.282Z,100715
2022-11-05T22:22:07.520Z,100697
2022-11-05T22:27:59.781Z,100691
2022-11-05T22:33:51.892Z,100686
2022-11-05T22:39:41.750Z,100690
2022-11-05T22:45:35.692Z,100657
2022-11-05T22:51:27.359Z,100660
2022-11-05T22:57:17.767Z,100649
2022-11-05T23:03:10.312Z,100643
2022-11-05T23:09:02.141Z,100646
2022-11-05T23:14:55.347Z,100644
2022-11-05T23:20:46.113Z,100641
2022-11-05T23:26:37.716Z,100638
2022-11-05T23:32:29.835Z,100628
2022-11-05T23:38:20.713Z,100634
2022-11-05T23:44:11.727Z,100630
2022-11-05T23:50:01.663Z,100619
2022-11-05T23:55:51.655Z,100609
